Majestic — ZCPX7 — position and weather

sailwx.info

Track history (hours):
 
Tides and Currents Weather Stations Pressure Air Temp Water Temp Dewpoint Dewpoint Depression Visibility Wind Speed Wind Dir Waves Ship Positions

Majestic

Last reported at 2014-Jul-18 14:06 UTC. Time now 2014-Jul-25 06:51 UTC.
Position N 43°20' W 070°28'.

Length 61 m; draft 3.4 m.

Type: Pleasure craft. MMSI: 319654000.

Date/timePositionNaut miles runAvg speedWind from/ knotsBaromVisibWave heightAir tempDewpointWater temp
2014-Jul-18 14:06N 43°20' W 070°28'0 0.1
2014-Jul-18 13:18N 43°20' W 070°28'0 0.1
2014-Jul-18 12:22N 43°20' W 070°28'910.9
2014-Jul-18 11:33N 43°11' W 070°32'12 8.9
2014-Jul-18 10:14N 43°03' W 070°44'0 0.0
2014-Jul-18 09:31N 43°03' W 070°44'0 0.0
2014-Jul-18 08:31N 43°03' W 070°44'0 0.0
2014-Jul-18 04:07N 43°03' W 070°44'0 0.0
2014-Jul-17 23:19N 43°03' W 070°44'1 0.1
2014-Jul-17 17:26N 43°03' W 070°43'10 9.0
2014-Jul-17 16:19N 42°54' W 070°39'1114.1
2014-Jul-17 15:34N 42°43' W 070°40'3 2.5
2014-Jul-17 14:31N 42°40' W 070°40'0 0.0
2014-Jul-17 13:31N 42°40' W 070°40'0 0.0
2014-Jul-17 12:31N 42°40' W 070°40'0 0.0
2014-Jul-17 11:31N 42°41' W 070°40'0 0.0
2014-Jul-17 10:31N 42°41' W 070°40'0 0.0
2014-Jul-17 09:31N 42°40' W 070°40'0 0.0
2014-Jul-17 08:31N 42°40' W 070°40'0 0.0
2014-Jul-17 07:31N 42°40' W 070°40'0 0.0
2014-Jul-17 06:31N 42°40' W 070°40'0 0.0
2014-Jul-17 05:31N 42°40' W 070°40'0 0.0
2014-Jul-17 04:31N 42°40' W 070°40'0 0.0
2014-Jul-17 03:31N 42°40' W 070°40'0 0.0
2014-Jul-17 02:31N 42°41' W 070°40'0 0.0
2014-Jul-17 01:31N 42°41' W 070°40'0 0.0
2014-Jul-17 00:31N 42°41' W 070°40'0 0.0
2014-Jul-16 23:31N 42°41' W 070°40'0 0.0
2014-Jul-16 22:31N 42°41' W 070°40'0 0.0
2014-Jul-16 21:31N 42°41' W 070°40'0 0.0
2014-Jul-16 20:31N 42°41' W 070°40'0 0.0
2014-Jul-16 19:31N 42°41' W 070°40'2 1.9
2014-Jul-16 18:33N 42°42' W 070°39'43 1.8
2014-Jul-15 18:11N 41°60' W 070°35'2 0.7
2014-Jul-15 15:28N 41°59' W 070°33'11 1.6
2014-Jul-15 08:10N 41°48' W 070°30'0 0.0
2014-Jul-15 06:34N 41°48' W 070°30'0 0.0
2014-Jul-15 05:29N 41°48' W 070°30'0 0.0
2014-Jul-15 04:31N 41°48' W 070°30'0 0.0
2014-Jul-15 03:33N 41°48' W 070°30'20 0.6
2014-Jul-13 16:30N 42°02' W 070°11'0 0.0
2014-Jul-13 12:33N 42°02' W 070°11'0 0.0
2014-Jul-13 11:33N 42°02' W 070°11'0 0.0
2014-Jul-13 10:33N 42°02' W 070°11'0 0.0
2014-Jul-13 09:32N 42°02' W 070°11'0 0.0
2014-Jul-13 08:33N 42°02' W 070°11'0 0.0
2014-Jul-13 07:34N 42°02' W 070°11'0 0.0
2014-Jul-13 06:34N 42°02' W 070°11'0 0.0
2014-Jul-13 05:33N 42°02' W 070°11'0 0.0
2014-Jul-13 04:33N 42°02' W 070°11'0 0.0
2014-Jul-13 03:33N 42°02' W 070°11'0 0.0
2014-Jul-13 02:34N 42°02' W 070°11'0 0.0
2014-Jul-13 01:33N 42°02' W 070°11'0 0.1
2014-Jul-13 00:10N 42°02' W 070°10'610.0
2014-Jul-12 23:33N 41°57' W 070°15'1414.0
2014-Jul-12 22:33N 41°47' W 070°28'1211.9
2014-Jul-12 21:33N 41°40' W 070°41'10 8.7
2014-Jul-12 20:26N 41°36' W 070°53'0 0.0
2014-Jul-12 19:34N 41°36' W 070°53'0 0.0
2014-Jul-12 18:29N 41°36' W 070°53'0 0.0
2014-Jul-12 17:28N 41°36' W 070°53'2 2.1
2014-Jul-12 16:34N 41°34' W 070°52'9 8.6
2014-Jul-12 15:34N 41°27' W 070°46'10 9.8
2014-Jul-12 14:34N 41°28' W 070°33'5 4.6
2014-Jul-12 13:34N 41°28' W 070°26'1312.8
2014-Jul-12 12:32N 41°25' W 070°10'8 8.3
2014-Jul-12 11:33N 41°17' W 070°06'0 0.0
2014-Jul-12 10:31N 41°17' W 070°06'0 0.0
2014-Jul-12 09:31N 41°17' W 070°06'0 0.0
2014-Jul-12 08:31N 41°17' W 070°06'0 0.0
2014-Jul-12 07:31N 41°17' W 070°06'0 0.0
2014-Jul-12 06:31N 41°17' W 070°06'0 0.0
2014-Jul-12 05:31N 41°17' W 070°06'0 0.0
2014-Jul-12 04:31N 41°17' W 070°06'0 0.0
2014-Jul-12 03:31N 41°17' W 070°06'0 0.0
2014-Jul-12 02:31N 41°17' W 070°06'0 0.0
2014-Jul-12 01:31N 41°17' W 070°06'0 0.0
2014-Jul-12 00:31N 41°17' W 070°06'0 0.0
2014-Jul-11 23:31N 41°17' W 070°06'0 0.0
2014-Jul-11 22:31N 41°17' W 070°06'0 0.0
2014-Jul-11 21:28N 41°17' W 070°06'0 0.0
2014-Jul-11 20:31N 41°17' W 070°06'0 0.0
2014-Jul-11 19:31N 41°17' W 070°06'0 0.0
2014-Jul-11 18:31N 41°17' W 070°06'0 0.0
2014-Jul-11 17:31N 41°17' W 070°06'0 0.0
2014-Jul-11 16:31N 41°17' W 070°06'0 0.0
2014-Jul-11 15:28N 41°17' W 070°06'0 0.0
2014-Jul-11 14:31N 41°17' W 070°06'0 0.0
2014-Jul-11 13:31N 41°17' W 070°06'0 0.0
2014-Jul-11 12:28N 41°17' W 070°06'0 0.0
2014-Jul-11 11:31N 41°17' W 070°06'0 0.0
2014-Jul-11 10:31N 41°17' W 070°06'0 0.0
2014-Jul-11 09:31N 41°17' W 070°06'0 0.0
2014-Jul-11 08:31N 41°17' W 070°06'0 0.0
2014-Jul-11 06:22N 41°17' W 070°06'0 0.0
2014-Jul-11 05:28N 41°17' W 070°06'0 0.0
2014-Jul-11 04:31N 41°17' W 070°06'0 0.0
2014-Jul-11 03:31N 41°17' W 070°06'0 0.0
2014-Jul-11 02:25N 41°17' W 070°06'0 0.0
2014-Jul-11 01:31N 41°17' W 070°06'0 0.0
2014-Jul-11 00:31N 41°17' W 070°06'0 0.0
2014-Jul-10 23:31N 41°17' W 070°06'0 0.0
2014-Jul-10 21:16N 41°17' W 070°06'0 0.0
2014-Jul-10 18:25N 41°17' W 070°06'0 0.0
2014-Jul-10 17:04N 41°17' W 070°06'0 0.0
2014-Jul-10 16:22N 41°17' W 070°06'0 0.0
2014-Jul-10 14:31N 41°17' W 070°06'0 0.0
2014-Jul-10 13:04N 41°17' W 070°06'0 0.0
2014-Jul-10 12:28N 41°17' W 070°06'0 0.0
2014-Jul-10 11:28N 41°17' W 070°06'0 0.0
2014-Jul-10 10:22N 41°17' W 070°06'0 0.0
2014-Jul-10 03:31N 41°17' W 070°06'0 0.0
2014-Jul-10 02:28N 41°17' W 070°06'0 0.0
2014-Jul-10 01:31N 41°17' W 070°06'0 0.0
2014-Jul-10 00:31N 41°17' W 070°06'0 0.0
2014-Jul-09 23:28N 41°17' W 070°06'0 0.0
2014-Jul-09 22:31N 41°17' W 070°06'0 0.0
2014-Jul-09 21:31N 41°17' W 070°06'0 0.0
2014-Jul-09 20:31N 41°17' W 070°06'0 0.0
2014-Jul-09 19:31N 41°17' W 070°06'0 0.0
2014-Jul-09 18:25N 41°17' W 070°06'0 0.0
2014-Jul-09 17:28N 41°17' W 070°06'0 0.0
2014-Jul-09 16:16N 41°17' W 070°06'0 0.0
2014-Jul-09 15:31N 41°17' W 070°06'0 0.0
2014-Jul-09 14:28N 41°17' W 070°06'0 0.0
2014-Jul-09 13:31N 41°17' W 070°06'0 0.0
2014-Jul-09 12:31N 41°17' W 070°06'0 0.0
2014-Jul-09 11:28N 41°17' W 070°06'0 0.0
2014-Jul-09 10:25N 41°17' W 070°06'0 0.0
2014-Jul-09 09:31N 41°17' W 070°06'0 0.0
2014-Jul-09 05:25N 41°17' W 070°06'0 0.0
2014-Jul-09 03:31N 41°17' W 070°06'0 0.0
2014-Jul-09 02:28N 41°17' W 070°06'0 0.0
2014-Jul-09 01:16N 41°17' W 070°06'0 0.0
2014-Jul-09 00:31N 41°17' W 070°06'0 0.0
2014-Jul-08 23:31N 41°17' W 070°06'0 0.0
2014-Jul-08 22:30N 41°17' W 070°06'0 0.0
2014-Jul-08 21:30N 41°17' W 070°06'0 0.0
2014-Jul-08 20:33N 41°17' W 070°06'0 0.0
2014-Jul-08 19:33N 41°17' W 070°06'0 0.0
2014-Jul-08 18:33N 41°17' W 070°06'0 0.0
2014-Jul-08 17:33N 41°17' W 070°06'0 0.0
2014-Jul-08 16:33N 41°17' W 070°06'0 0.0
2014-Jul-08 15:32N 41°17' W 070°06'0 0.0
2014-Jul-08 14:33N 41°17' W 070°06'  
Track history (hours):
 
Tides and Currents Weather Stations Pressure Air Temp Water Temp Dewpoint Dewpoint Depression Visibility Wind Speed Wind Dir Waves Ship Positions

Majestic

Last reported at 2014-Jul-18 14:06 UTC. Time now 2014-Jul-25 06:51 UTC.
Position N 43°20' W 070°28'.

Length 61 m; draft 3.4 m.

Type: Pleasure craft. MMSI: 319654000.

Date/timePositionNaut miles runAvg speedWind from/ knotsBaromVisibWave heightAir tempDewpointWater temp
2014-Jul-18 14:06N 43°20' W 070°28'0 0.1
2014-Jul-18 13:18N 43°20' W 070°28'0 0.1
2014-Jul-18 12:22N 43°20' W 070°28'910.9
2014-Jul-18 11:33N 43°11' W 070°32'12 8.9
2014-Jul-18 10:14N 43°03' W 070°44'0 0.0
2014-Jul-18 09:31N 43°03' W 070°44'0 0.0
2014-Jul-18 08:31N 43°03' W 070°44'0 0.0
2014-Jul-18 04:07N 43°03' W 070°44'0 0.0
2014-Jul-17 23:19N 43°03' W 070°44'1 0.1
2014-Jul-17 17:26N 43°03' W 070°43'10 9.0
2014-Jul-17 16:19N 42°54' W 070°39'1114.1
2014-Jul-17 15:34N 42°43' W 070°40'3 2.5
2014-Jul-17 14:31N 42°40' W 070°40'0 0.0
2014-Jul-17 13:31N 42°40' W 070°40'0 0.0
2014-Jul-17 12:31N 42°40' W 070°40'0 0.0
2014-Jul-17 11:31N 42°41' W 070°40'0 0.0
2014-Jul-17 10:31N 42°41' W 070°40'0 0.0
2014-Jul-17 09:31N 42°40' W 070°40'0 0.0
2014-Jul-17 08:31N 42°40' W 070°40'0 0.0
2014-Jul-17 07:31N 42°40' W 070°40'0 0.0
2014-Jul-17 06:31N 42°40' W 070°40'0 0.0
2014-Jul-17 05:31N 42°40' W 070°40'0 0.0
2014-Jul-17 04:31N 42°40' W 070°40'0 0.0
2014-Jul-17 03:31N 42°40' W 070°40'0 0.0
2014-Jul-17 02:31N 42°41' W 070°40'0 0.0
2014-Jul-17 01:31N 42°41' W 070°40'0 0.0
2014-Jul-17 00:31N 42°41' W 070°40'0 0.0
2014-Jul-16 23:31N 42°41' W 070°40'0 0.0
2014-Jul-16 22:31N 42°41' W 070°40'0 0.0
2014-Jul-16 21:31N 42°41' W 070°40'0 0.0
2014-Jul-16 20:31N 42°41' W 070°40'0 0.0
2014-Jul-16 19:31N 42°41' W 070°40'2 1.9
2014-Jul-16 18:33N 42°42' W 070°39'43 1.8
2014-Jul-15 18:11N 41°60' W 070°35'2 0.7
2014-Jul-15 15:28N 41°59' W 070°33'11 1.6
2014-Jul-15 08:10N 41°48' W 070°30'0 0.0
2014-Jul-15 06:34N 41°48' W 070°30'0 0.0
2014-Jul-15 05:29N 41°48' W 070°30'0 0.0
2014-Jul-15 04:31N 41°48' W 070°30'0 0.0
2014-Jul-15 03:33N 41°48' W 070°30'20 0.6
2014-Jul-13 16:30N 42°02' W 070°11'0 0.0
2014-Jul-13 12:33N 42°02' W 070°11'0 0.0
2014-Jul-13 11:33N 42°02' W 070°11'0 0.0
2014-Jul-13 10:33N 42°02' W 070°11'0 0.0
2014-Jul-13 09:32N 42°02' W 070°11'0 0.0
2014-Jul-13 08:33N 42°02' W 070°11'0 0.0
2014-Jul-13 07:34N 42°02' W 070°11'0 0.0
2014-Jul-13 06:34N 42°02' W 070°11'0 0.0
2014-Jul-13 05:33N 42°02' W 070°11'0 0.0
2014-Jul-13 04:33N 42°02' W 070°11'0 0.0
2014-Jul-13 03:33N 42°02' W 070°11'0 0.0
2014-Jul-13 02:34N 42°02' W 070°11'0 0.0
2014-Jul-13 01:33N 42°02' W 070°11'0 0.1
2014-Jul-13 00:10N 42°02' W 070°10'610.0
2014-Jul-12 23:33N 41°57' W 070°15'1414.0
2014-Jul-12 22:33N 41°47' W 070°28'1211.9
2014-Jul-12 21:33N 41°40' W 070°41'10 8.7
2014-Jul-12 20:26N 41°36' W 070°53'0 0.0
2014-Jul-12 19:34N 41°36' W 070°53'0 0.0
2014-Jul-12 18:29N 41°36' W 070°53'0 0.0
2014-Jul-12 17:28N 41°36' W 070°53'2 2.1
2014-Jul-12 16:34N 41°34' W 070°52'9 8.6
2014-Jul-12 15:34N 41°27' W 070°46'10 9.8
2014-Jul-12 14:34N 41°28' W 070°33'5 4.6
2014-Jul-12 13:34N 41°28' W 070°26'1312.8
2014-Jul-12 12:32N 41°25' W 070°10'8 8.3
2014-Jul-12 11:33N 41°17' W 070°06'0 0.0
2014-Jul-12 10:31N 41°17' W 070°06'0 0.0
2014-Jul-12 09:31N 41°17' W 070°06'0 0.0
2014-Jul-12 08:31N 41°17' W 070°06'0 0.0
2014-Jul-12 07:31N 41°17' W 070°06'0 0.0
2014-Jul-12 06:31N 41°17' W 070°06'0 0.0
2014-Jul-12 05:31N 41°17' W 070°06'0 0.0
2014-Jul-12 04:31N 41°17' W 070°06'0 0.0
2014-Jul-12 03:31N 41°17' W 070°06'0 0.0
2014-Jul-12 02:31N 41°17' W 070°06'0 0.0
2014-Jul-12 01:31N 41°17' W 070°06'0 0.0
2014-Jul-12 00:31N 41°17' W 070°06'0 0.0
2014-Jul-11 23:31N 41°17' W 070°06'0 0.0
2014-Jul-11 22:31N 41°17' W 070°06'0 0.0
2014-Jul-11 21:28N 41°17' W 070°06'0 0.0
2014-Jul-11 20:31N 41°17' W 070°06'0 0.0
2014-Jul-11 19:31N 41°17' W 070°06'0 0.0
2014-Jul-11 18:31N 41°17' W 070°06'0 0.0
2014-Jul-11 17:31N 41°17' W 070°06'0 0.0
2014-Jul-11 16:31N 41°17' W 070°06'0 0.0
2014-Jul-11 15:28N 41°17' W 070°06'0 0.0
2014-Jul-11 14:31N 41°17' W 070°06'0 0.0
2014-Jul-11 13:31N 41°17' W 070°06'0 0.0
2014-Jul-11 12:28N 41°17' W 070°06'0 0.0
2014-Jul-11 11:31N 41°17' W 070°06'0 0.0
2014-Jul-11 10:31N 41°17' W 070°06'0 0.0
2014-Jul-11 09:31N 41°17' W 070°06'0 0.0
2014-Jul-11 08:31N 41°17' W 070°06'0 0.0
2014-Jul-11 06:22N 41°17' W 070°06'0 0.0
2014-Jul-11 05:28N 41°17' W 070°06'0 0.0
2014-Jul-11 04:31N 41°17' W 070°06'0 0.0
2014-Jul-11 03:31N 41°17' W 070°06'0 0.0
2014-Jul-11 02:25N 41°17' W 070°06'0 0.0
2014-Jul-11 01:31N 41°17' W 070°06'0 0.0
2014-Jul-11 00:31N 41°17' W 070°06'0 0.0
2014-Jul-10 23:31N 41°17' W 070°06'0 0.0
2014-Jul-10 21:16N 41°17' W 070°06'0 0.0
2014-Jul-10 18:25N 41°17' W 070°06'0 0.0
2014-Jul-10 17:04N 41°17' W 070°06'0 0.0
2014-Jul-10 16:22N 41°17' W 070°06'0 0.0
2014-Jul-10 14:31N 41°17' W 070°06'0 0.0
2014-Jul-10 13:04N 41°17' W 070°06'0 0.0
2014-Jul-10 12:28N 41°17' W 070°06'0 0.0
2014-Jul-10 11:28N 41°17' W 070°06'0 0.0
2014-Jul-10 10:22N 41°17' W 070°06'0 0.0
2014-Jul-10 03:31N 41°17' W 070°06'0 0.0
2014-Jul-10 02:28N 41°17' W 070°06'0 0.0
2014-Jul-10 01:31N 41°17' W 070°06'0 0.0
2014-Jul-10 00:31N 41°17' W 070°06'0 0.0
2014-Jul-09 23:28N 41°17' W 070°06'0 0.0
2014-Jul-09 22:31N 41°17' W 070°06'0 0.0
2014-Jul-09 21:31N 41°17' W 070°06'0 0.0
2014-Jul-09 20:31N 41°17' W 070°06'0 0.0
2014-Jul-09 19:31N 41°17' W 070°06'0 0.0
2014-Jul-09 18:25N 41°17' W 070°06'0 0.0
2014-Jul-09 17:28N 41°17' W 070°06'0 0.0
2014-Jul-09 16:16N 41°17' W 070°06'0 0.0
2014-Jul-09 15:31N 41°17' W 070°06'0 0.0
2014-Jul-09 14:28N 41°17' W 070°06'0 0.0
2014-Jul-09 13:31N 41°17' W 070°06'0 0.0
2014-Jul-09 12:31N 41°17' W 070°06'0 0.0
2014-Jul-09 11:28N 41°17' W 070°06'0 0.0
2014-Jul-09 10:25N 41°17' W 070°06'0 0.0
2014-Jul-09 09:31N 41°17' W 070°06'0 0.0
2014-Jul-09 05:25N 41°17' W 070°06'0 0.0
2014-Jul-09 03:31N 41°17' W 070°06'0 0.0
2014-Jul-09 02:28N 41°17' W 070°06'0 0.0
2014-Jul-09 01:16N 41°17' W 070°06'0 0.0
2014-Jul-09 00:31N 41°17' W 070°06'0 0.0
2014-Jul-08 23:31N 41°17' W 070°06'0 0.0
2014-Jul-08 22:30N 41°17' W 070°06'0 0.0
2014-Jul-08 21:30N 41°17' W 070°06'0 0.0
2014-Jul-08 20:33N 41°17' W 070°06'0 0.0
2014-Jul-08 19:33N 41°17' W 070°06'0 0.0
2014-Jul-08 18:33N 41°17' W 070°06'0 0.0
2014-Jul-08 17:33N 41°17' W 070°06'0 0.0
2014-Jul-08 16:33N 41°17' W 070°06'0 0.0
2014-Jul-08 15:32N 41°17' W 070°06'0 0.0
2014-Jul-08 14:33N 41°17' W 070°06'  

Dump ship's entire track history